sensor_id;sensor_type;location;lat;lon;timestamp;pressure;altitude;pressure_sealevel;temperature;humidity
61898;BME280;47850;50.274;18.908;2022-12-18T00:00:43;99530.06;;;-5.72;87.59
61898;BME280;47850;50.274;18.908;2022-12-18T00:03:09;99535.50;;;-5.68;87.79
61898;BME280;47850;50.274;18.908;2022-12-18T00:05:35;99537.54;;;-5.66;87.72
61898;BME280;47850;50.274;18.908;2022-12-18T00:08:02;99541.06;;;-5.65;87.66
61898;BME280;47850;50.274;18.908;2022-12-18T00:10:28;99541.50;;;-5.62;87.64
61898;BME280;47850;50.274;18.908;2022-12-18T00:12:54;99543.48;;;-5.59;87.67
61898;BME280;47850;50.274;18.908;2022-12-18T00:15:20;99546.52;;;-5.58;87.57
61898;BME280;47850;50.274;18.908;2022-12-18T00:17:46;99546.46;;;-5.56;87.43
61898;BME280;47850;50.274;18.908;2022-12-18T00:20:11;99550.32;;;-5.57;87.33
61898;BME280;47850;50.274;18.908;2022-12-18T00:22:37;99552.79;;;-5.57;87.34
61898;BME280;47850;50.274;18.908;2022-12-18T00:25:02;99555.15;;;-5.54;87.37
61898;BME280;47850;50.274;18.908;2022-12-18T00:27:28;99562.05;;;-5.53;87.31
61898;BME280;47850;50.274;18.908;2022-12-18T00:29:53;99558.98;;;-5.52;87.23
61898;BME280;47850;50.274;18.908;2022-12-18T00:32:19;99561.45;;;-5.52;87.07
61898;BME280;47850;50.274;18.908;2022-12-18T00:34:44;99560.36;;;-5.54;86.74
61898;BME280;47850;50.274;18.908;2022-12-18T00:37:10;99562.82;;;-5.55;86.69
61898;BME280;47850;50.274;18.908;2022-12-18T00:39:35;99562.59;;;-5.54;86.82
61898;BME280;47850;50.274;18.908;2022-12-18T00:42:00;99564.68;;;-5.54;86.79
61898;BME280;47850;50.274;18.908;2022-12-18T00:45:05;99572.80;;;-5.52;86.74
61898;BME280;47850;50.274;18.908;2022-12-18T00:47:31;99581.02;;;-5.51;86.70
61898;BME280;47850;50.274;18.908;2022-12-18T00:49:56;99582.50;;;-5.52;86.53
61898;BME280;47850;50.274;18.908;2022-12-18T00:52:22;99579.41;;;-5.51;86.67
61898;BME280;47850;50.274;18.908;2022-12-18T00:54:47;99589.65;;;-5.49;86.63
61898;BME280;47850;50.274;18.908;2022-12-18T00:57:12;99589.21;;;-5.50;86.53
61898;BME280;47850;50.274;18.908;2022-12-18T00:59:38;99590.66;;;-5.51;86.42
61898;BME280;47850;50.274;18.908;2022-12-18T01:02:03;99591.00;;;-5.50;86.44
61898;BME280;47850;50.274;18.908;2022-12-18T01:04:31;99597.90;;;-5.51;86.42
61898;BME280;47850;50.274;18.908;2022-12-18T01:06:57;99601.52;;;-5.49;86.41
61898;BME280;47850;50.274;18.908;2022-12-18T01:09:22;99606.78;;;-5.47;86.35
61898;BME280;47850;50.274;18.908;2022-12-18T01:11:48;99608.68;;;-5.47;86.13
61898;BME280;47850;50.274;18.908;2022-12-18T01:14:13;99612.40;;;-5.47;86.02
61898;BME280;47850;50.274;18.908;2022-12-18T01:16:39;99603.77;;;-5.47;85.98
61898;BME280;47850;50.274;18.908;2022-12-18T01:19:04;99604.51;;;-5.49;85.96
61898;BME280;47850;50.274;18.908;2022-12-18T01:21:30;99604.91;;;-5.50;86.15
61898;BME280;47850;50.274;18.908;2022-12-18T01:23:56;99605.55;;;-5.51;86.22
61898;BME280;47850;50.274;18.908;2022-12-18T01:26:23;99610.38;;;-5.51;86.20
61898;BME280;47850;50.274;18.908;2022-12-18T01:28:48;99607.67;;;-5.51;86.36
61898;BME280;47850;50.274;18.908;2022-12-18T01:31:19;99610.81;;;-5.51;86.37
61898;BME280;47850;50.274;18.908;2022-12-18T01:33:47;99612.37;;;-5.51;86.51
61898;BME280;47850;50.274;18.908;2022-12-18T01:36:28;99613.49;;;-5.52;86.45
61898;BME280;47850;50.274;18.908;2022-12-18T01:38:54;99607.73;;;-5.52;86.54
61898;BME280;47850;50.274;18.908;2022-12-18T01:41:25;99614.73;;;-5.53;86.66
61898;BME280;47850;50.274;18.908;2022-12-18T01:43:54;99614.77;;;-5.53;86.64
61898;BME280;47850;50.274;18.908;2022-12-18T01:46:22;99615.23;;;-5.53;86.71
61898;BME280;47850;50.274;18.908;2022-12-18T01:48:51;99622.61;;;-5.52;86.77
61898;BME280;47850;50.274;18.908;2022-12-18T01:51:17;99622.19;;;-5.53;86.81
61898;BME280;47850;50.274;18.908;2022-12-18T01:53:44;99620.83;;;-5.54;86.71
61898;BME280;47850;50.274;18.908;2022-12-18T01:56:21;99625.25;;;-5.54;86.92
61898;BME280;47850;50.274;18.908;2022-12-18T01:58:56;99633.58;;;-5.52;86.79
61898;BME280;47850;50.274;18.908;2022-12-18T02:01:25;99633.70;;;-5.52;86.65
61898;BME280;47850;50.274;18.908;2022-12-18T02:03:51;99637.68;;;-5.49;86.89
61898;BME280;47850;50.274;18.908;2022-12-18T02:11:56;99657.14;;;-5.46;86.76
61898;BME280;47850;50.274;18.908;2022-12-18T02:15:00;99656.66;;;-5.47;86.68
61898;BME280;47850;50.274;18.908;2022-12-18T02:17:39;99660.61;;;-5.50;86.63
61898;BME280;47850;50.274;18.908;2022-12-18T02:20:20;99661.59;;;-5.52;86.68
61898;BME280;47850;50.274;18.908;2022-12-18T02:23:10;99665.29;;;-5.55;86.89
61898;BME280;47850;50.274;18.908;2022-12-18T02:25:59;99668.45;;;-5.56;86.88
61898;BME280;47850;50.274;18.908;2022-12-18T02:28:31;99672.29;;;-5.56;86.94
61898;BME280;47850;50.274;18.908;2022-12-18T02:31:00;99672.81;;;-5.56;86.98
61898;BME280;47850;50.274;18.908;2022-12-18T02:33:29;99674.56;;;-5.57;86.93
61898;BME280;47850;50.274;18.908;2022-12-18T02:35:57;99674.92;;;-5.59;87.08
61898;BME280;47850;50.274;18.908;2022-12-18T02:38:25;99676.50;;;-5.61;87.07
61898;BME280;47850;50.274;18.908;2022-12-18T02:40:52;99674.91;;;-5.61;87.11
61898;BME280;47850;50.274;18.908;2022-12-18T02:43:19;99676.41;;;-5.61;87.18
61898;BME280;47850;50.274;18.908;2022-12-18T02:45:54;99683.71;;;-5.62;87.25
61898;BME280;47850;50.274;18.908;2022-12-18T02:48:24;99685.48;;;-5.62;87.46
61898;BME280;47850;50.274;18.908;2022-12-18T02:56:18;99699.05;;;-5.64;87.36
61898;BME280;47850;50.274;18.908;2022-12-18T02:59:30;99701.48;;;-5.67;87.40
61898;BME280;47850;50.274;18.908;2022-12-18T03:04:46;99718.93;;;-5.66;87.62
61898;BME280;47850;50.274;18.908;2022-12-18T03:07:23;99722.96;;;-5.67;87.47
61898;BME280;47850;50.274;18.908;2022-12-18T03:09:52;99724.84;;;-5.71;87.51
61898;BME280;47850;50.274;18.908;2022-12-18T03:12:29;99723.91;;;-5.72;87.64
61898;BME280;47850;50.274;18.908;2022-12-18T03:15:08;99722.69;;;-5.72;87.92
61898;BME280;47850;50.274;18.908;2022-12-18T03:17:34;99724.25;;;-5.72;87.95
61898;BME280;47850;50.274;18.908;2022-12-18T03:20:12;99725.45;;;-5.73;87.66
61898;BME280;47850;50.274;18.908;2022-12-18T03:22:42;99722.37;;;-5.74;87.72
61898;BME280;47850;50.274;18.908;2022-12-18T03:25:13;99722.13;;;-5.75;87.82
61898;BME280;47850;50.274;18.908;2022-12-18T03:27:44;99722.97;;;-5.77;87.77
61898;BME280;47850;50.274;18.908;2022-12-18T03:30:12;99721.05;;;-5.77;87.92
61898;BME280;47850;50.274;18.908;2022-12-18T03:32:48;99723.60;;;-5.76;88.01
61898;BME280;47850;50.274;18.908;2022-12-18T03:35:21;99727.34;;;-5.74;88.02
61898;BME280;47850;50.274;18.908;2022-12-18T03:37:48;99729.23;;;-5.74;88.04
61898;BME280;47850;50.274;18.908;2022-12-18T03:40:14;99733.31;;;-5.72;87.92
61898;BME280;47850;50.274;18.908;2022-12-18T03:42:52;99735.15;;;-5.71;88.01
61898;BME280;47850;50.274;18.908;2022-12-18T03:45:37;99730.77;;;-5.72;87.81
61898;BME280;47850;50.274;18.908;2022-12-18T03:50:49;99743.50;;;-5.74;87.89
61898;BME280;47850;50.274;18.908;2022-12-18T03:55:51;99749.77;;;-5.72;87.98
61898;BME280;47850;50.274;18.908;2022-12-18T03:58:21;99752.42;;;-5.72;87.96
61898;BME280;47850;50.274;18.908;2022-12-18T04:00:50;99751.33;;;-5.73;87.87
61898;BME280;47850;50.274;18.908;2022-12-18T04:03:18;99752.48;;;-5.74;87.93
61898;BME280;47850;50.274;18.908;2022-12-18T04:05:47;99761.06;;;-5.77;87.80
61898;BME280;47850;50.274;18.908;2022-12-18T04:08:15;99762.71;;;-5.80;87.83
61898;BME280;47850;50.274;18.908;2022-12-18T04:10:41;99763.47;;;-5.82;87.98
61898;BME280;47850;50.274;18.908;2022-12-18T04:13:06;99763.03;;;-5.83;88.18
61898;BME280;47850;50.274;18.908;2022-12-18T04:15:34;99765.51;;;-5.84;88.10
61898;BME280;47850;50.274;18.908;2022-12-18T04:18:01;99771.98;;;-5.84;88.17
61898;BME280;47850;50.274;18.908;2022-12-18T04:20:27;99767.43;;;-5.84;88.10
61898;BME280;47850;50.274;18.908;2022-12-18T04:22:52;99768.35;;;-5.83;88.23
61898;BME280;47850;50.274;18.908;2022-12-18T04:25:17;99773.63;;;-5.83;88.30
61898;BME280;47850;50.274;18.908;2022-12-18T04:27:43;99779.50;;;-5.83;88.18
61898;BME280;47850;50.274;18.908;2022-12-18T04:30:09;99779.26;;;-5.84;88.25
61898;BME280;47850;50.274;18.908;2022-12-18T04:32:35;99780.33;;;-5.82;88.43
61898;BME280;47850;50.274;18.908;2022-12-18T04:35:01;99789.52;;;-5.81;88.51
61898;BME280;47850;50.274;18.908;2022-12-18T04:37:27;99789.10;;;-5.78;88.48
61898;BME280;47850;50.274;18.908;2022-12-18T04:39:53;99793.39;;;-5.77;88.37
61898;BME280;47850;50.274;18.908;2022-12-18T04:42:18;99792.04;;;-5.78;88.41
61898;BME280;47850;50.274;18.908;2022-12-18T04:44:43;99797.13;;;-5.79;88.24
61898;BME280;47850;50.274;18.908;2022-12-18T04:47:09;99797.19;;;-5.80;88.42
61898;BME280;47850;50.274;18.908;2022-12-18T04:49:35;99797.13;;;-5.81;88.38
61898;BME280;47850;50.274;18.908;2022-12-18T04:52:00;99800.83;;;-5.83;88.20
61898;BME280;47850;50.274;18.908;2022-12-18T04:54:26;99810.55;;;-5.85;88.35
61898;BME280;47850;50.274;18.908;2022-12-18T04:56:51;99812.70;;;-5.87;88.41
61898;BME280;47850;50.274;18.908;2022-12-18T04:59:16;99814.60;;;-5.88;88.46
61898;BME280;47850;50.274;18.908;2022-12-18T05:01:42;99822.40;;;-5.88;88.53
61898;BME280;47850;50.274;18.908;2022-12-18T05:04:07;99825.85;;;-5.88;88.54
61898;BME280;47850;50.274;18.908;2022-12-18T05:06:33;99833.86;;;-5.87;88.69
61898;BME280;47850;50.274;18.908;2022-12-18T05:08:58;99838.47;;;-5.86;88.63
61898;BME280;47850;50.274;18.908;2022-12-18T05:11:24;99839.63;;;-5.87;88.55
61898;BME280;47850;50.274;18.908;2022-12-18T05:13:49;99839.20;;;-5.86;88.79
61898;BME280;47850;50.274;18.908;2022-12-18T05:16:15;99834.26;;;-5.86;88.80
61898;BME280;47850;50.274;18.908;2022-12-18T05:18:41;99842.66;;;-5.88;88.79
61898;BME280;47850;50.274;18.908;2022-12-18T05:21:07;99844.39;;;-5.90;88.79
61898;BME280;47850;50.274;18.908;2022-12-18T05:23:35;99842.68;;;-5.92;88.89
61898;BME280;47850;50.274;18.908;2022-12-18T05:26:03;99847.75;;;-5.95;89.05
61898;BME280;47850;50.274;18.908;2022-12-18T05:28:31;99845.21;;;-5.99;88.99
61898;BME280;47850;50.274;18.908;2022-12-18T05:30:59;99845.19;;;-6.03;89.14
61898;BME280;47850;50.274;18.908;2022-12-18T05:33:27;99844.10;;;-6.06;89.34
61898;BME280;47850;50.274;18.908;2022-12-18T05:35:55;99847.97;;;-6.09;89.30
61898;BME280;47850;50.274;18.908;2022-12-18T05:38:22;99851.88;;;-6.09;89.45
61898;BME280;47850;50.274;18.908;2022-12-18T05:40:49;99852.05;;;-6.11;89.53
61898;BME280;47850;50.274;18.908;2022-12-18T05:43:15;99856.67;;;-6.14;89.56
61898;BME280;47850;50.274;18.908;2022-12-18T05:45:41;99862.11;;;-6.16;89.58
61898;BME280;47850;50.274;18.908;2022-12-18T05:48:07;99863.84;;;-6.17;89.72
61898;BME280;47850;50.274;18.908;2022-12-18T05:50:35;99869.89;;;-6.19;89.74
61898;BME280;47850;50.274;18.908;2022-12-18T05:53:02;99864.64;;;-6.18;89.85
61898;BME280;47850;50.274;18.908;2022-12-18T05:55:28;99864.21;;;-6.17;89.78
61898;BME280;47850;50.274;18.908;2022-12-18T05:57:53;99866.64;;;-6.16;89.75
61898;BME280;47850;50.274;18.908;2022-12-18T06:00:19;99869.45;;;-6.15;89.85
61898;BME280;47850;50.274;18.908;2022-12-18T06:02:47;99872.45;;;-6.14;89.77
61898;BME280;47850;50.274;18.908;2022-12-18T06:05:13;99877.52;;;-6.14;89.93
61898;BME280;47850;50.274;18.908;2022-12-18T06:07:38;99878.38;;;-6.15;89.85
61898;BME280;47850;50.274;18.908;2022-12-18T06:10:04;99880.48;;;-6.18;89.95
61898;BME280;47850;50.274;18.908;2022-12-18T06:12:30;99878.55;;;-6.20;89.96
61898;BME280;47850;50.274;18.908;2022-12-18T06:14:55;99882.59;;;-6.19;90.20
61898;BME280;47850;50.274;18.908;2022-12-18T06:17:21;99882.02;;;-6.19;90.11
61898;BME280;47850;50.274;18.908;2022-12-18T06:19:46;99882.83;;;-6.17;90.25
61898;BME280;47850;50.274;18.908;2022-12-18T06:22:12;99886.39;;;-6.16;90.20
61898;BME280;47850;50.274;18.908;2022-12-18T06:24:37;99890.11;;;-6.16;90.04
61898;BME280;47850;50.274;18.908;2022-12-18T06:27:03;99891.95;;;-6.15;90.03
61898;BME280;47850;50.274;18.908;2022-12-18T06:29:28;99893.16;;;-6.16;90.03
61898;BME280;47850;50.274;18.908;2022-12-18T06:31:54;99894.91;;;-6.19;89.99
61898;BME280;47850;50.274;18.908;2022-12-18T06:34:19;99896.62;;;-6.21;90.08
61898;BME280;47850;50.274;18.908;2022-12-18T06:36:45;99901.59;;;-6.22;90.14
61898;BME280;47850;50.274;18.908;2022-12-18T06:39:10;99906.27;;;-6.21;90.13
61898;BME280;47850;50.274;18.908;2022-12-18T06:41:35;99906.20;;;-6.20;90.18
61898;BME280;47850;50.274;18.908;2022-12-18T06:44:01;99910.33;;;-6.21;90.15
61898;BME280;47850;50.274;18.908;2022-12-18T06:46:26;99915.84;;;-6.19;90.32
61898;BME280;47850;50.274;18.908;2022-12-18T06:48:52;99919.39;;;-6.16;90.23
61898;BME280;47850;50.274;18.908;2022-12-18T06:51:22;99920.98;;;-6.15;90.11
61898;BME280;47850;50.274;18.908;2022-12-18T06:53:48;99924.90;;;-6.13;90.03
61898;BME280;47850;50.274;18.908;2022-12-18T06:56:15;99927.16;;;-6.13;89.89
61898;BME280;47850;50.274;18.908;2022-12-18T06:58:41;99931.42;;;-6.10;90.11
61898;BME280;47850;50.274;18.908;2022-12-18T07:01:10;99935.77;;;-6.07;90.12
61898;BME280;47850;50.274;18.908;2022-12-18T07:03:37;99940.53;;;-6.07;89.80
61898;BME280;47850;50.274;18.908;2022-12-18T07:06:02;99938.79;;;-6.07;89.74
61898;BME280;47850;50.274;18.908;2022-12-18T07:08:29;99942.78;;;-6.06;89.75
61898;BME280;47850;50.274;18.908;2022-12-18T07:10:55;99943.37;;;-6.04;89.72
61898;BME280;47850;50.274;18.908;2022-12-18T07:13:20;99946.21;;;-6.02;89.59
61898;BME280;47850;50.274;18.908;2022-12-18T07:15:46;99952.67;;;-6.00;89.54
61898;BME280;47850;50.274;18.908;2022-12-18T07:18:11;99955.19;;;-5.96;89.50
61898;BME280;47850;50.274;18.908;2022-12-18T07:20:37;99960.23;;;-5.91;89.50
61898;BME280;47850;50.274;18.908;2022-12-18T07:23:03;99961.04;;;-5.87;89.37
61898;BME280;47850;50.274;18.908;2022-12-18T07:25:34;99960.96;;;-5.85;89.14
61898;BME280;47850;50.274;18.908;2022-12-18T07:28:00;99967.13;;;-5.82;88.84
61898;BME280;47850;50.274;18.908;2022-12-18T07:30:25;99971.70;;;-5.76;89.00
61898;BME280;47850;50.274;18.908;2022-12-18T07:32:51;99971.48;;;-5.73;88.81
61898;BME280;47850;50.274;18.908;2022-12-18T07:35:16;99973.17;;;-5.69;88.64
61898;BME280;47850;50.274;18.908;2022-12-18T07:37:42;99981.92;;;-5.65;88.53
61898;BME280;47850;50.274;18.908;2022-12-18T07:40:08;99981.42;;;-5.60;88.44
61898;BME280;47850;50.274;18.908;2022-12-18T07:42:33;99982.77;;;-5.56;88.31
61898;BME280;47850;50.274;18.908;2022-12-18T07:45:00;99981.52;;;-5.54;87.84
61898;BME280;47850;50.274;18.908;2022-12-18T07:47:27;99980.63;;;-5.51;87.83
61898;BME280;47850;50.274;18.908;2022-12-18T07:49:53;99984.54;;;-5.46;87.70
61898;BME280;47850;50.274;18.908;2022-12-18T07:52:18;99981.88;;;-5.45;87.47
61898;BME280;47850;50.274;18.908;2022-12-18T07:54:45;99979.34;;;-5.41;87.34
61898;BME280;47850;50.274;18.908;2022-12-18T07:57:10;99978.65;;;-5.39;87.05
61898;BME280;47850;50.274;18.908;2022-12-18T07:59:36;99974.72;;;-5.43;86.84
61898;BME280;47850;50.274;18.908;2022-12-18T08:02:02;99981.48;;;-5.46;86.85
61898;BME280;47850;50.274;18.908;2022-12-18T08:04:28;99981.08;;;-5.47;86.82
61898;BME280;47850;50.274;18.908;2022-12-18T08:06:53;99980.42;;;-5.49;86.66
61898;BME280;47850;50.274;18.908;2022-12-18T08:09:19;99980.42;;;-5.49;86.81
61898;BME280;47850;50.274;18.908;2022-12-18T08:11:44;99979.57;;;-5.51;86.67
61898;BME280;47850;50.274;18.908;2022-12-18T08:14:10;99981.11;;;-5.50;86.70
61898;BME280;47850;50.274;18.908;2022-12-18T08:16:36;99984.05;;;-5.50;86.77
61898;BME280;47850;50.274;18.908;2022-12-18T08:19:02;99988.52;;;-5.49;86.48
61898;BME280;47850;50.274;18.908;2022-12-18T08:21:29;99992.85;;;-5.48;86.44
61898;BME280;47850;50.274;18.908;2022-12-18T08:24:00;99996.45;;;-5.45;86.66
61898;BME280;47850;50.274;18.908;2022-12-18T08:26:28;99995.98;;;-5.44;86.51
61898;BME280;47850;50.274;18.908;2022-12-18T08:28:55;100000.46;;;-5.46;86.22
61898;BME280;47850;50.274;18.908;2022-12-18T08:31:21;100002.35;;;-5.47;86.19
61898;BME280;47850;50.274;18.908;2022-12-18T08:33:49;100003.38;;;-5.47;86.12
61898;BME280;47850;50.274;18.908;2022-12-18T08:36:15;100004.93;;;-5.45;86.18
61898;BME280;47850;50.274;18.908;2022-12-18T08:38:41;100005.23;;;-5.43;85.97
61898;BME280;47850;50.274;18.908;2022-12-18T08:41:09;100012.18;;;-5.38;85.98
61898;BME280;47850;50.274;18.908;2022-12-18T08:43:34;100017.04;;;-5.34;85.88
61898;BME280;47850;50.274;18.908;2022-12-18T08:46:20;100017.52;;;-5.27;85.70
61898;BME280;47850;50.274;18.908;2022-12-18T08:48:46;100024.03;;;-5.22;85.71
61898;BME280;47850;50.274;18.908;2022-12-18T08:51:12;100027.73;;;-5.13;85.52
61898;BME280;47850;50.274;18.908;2022-12-18T08:53:38;100024.55;;;-5.06;85.30
61898;BME280;47850;50.274;18.908;2022-12-18T08:56:04;100030.63;;;-5.01;84.99
61898;BME280;47850;50.274;18.908;2022-12-18T08:58:30;100037.14;;;-4.92;84.84
61898;BME280;47850;50.274;18.908;2022-12-18T09:03:16;100035.61;;;-4.76;84.68
61898;BME280;47850;50.274;18.908;2022-12-18T09:05:42;100039.75;;;-4.71;84.22
61898;BME280;47850;50.274;18.908;2022-12-18T09:08:07;100046.25;;;-4.66;84.11
61898;BME280;47850;50.274;18.908;2022-12-18T09:10:33;100051.47;;;-4.59;83.98
61898;BME280;47850;50.274;18.908;2022-12-18T09:12:59;100054.29;;;-4.57;83.24
61898;BME280;47850;50.274;18.908;2022-12-18T09:15:25;100051.59;;;-4.63;82.73
61898;BME280;47850;50.274;18.908;2022-12-18T09:17:51;100056.02;;;-4.67;82.58
61898;BME280;47850;50.274;18.908;2022-12-18T09:20:18;100056.20;;;-4.65;82.73
61898;BME280;47850;50.274;18.908;2022-12-18T09:22:45;100058.13;;;-4.60;82.02
61898;BME280;47850;50.274;18.908;2022-12-18T09:25:10;100058.13;;;-4.53;81.66
61898;BME280;47850;50.274;18.908;2022-12-18T09:27:36;100053.70;;;-4.46;81.55
61898;BME280;47850;50.274;18.908;2022-12-18T09:30:02;100052.58;;;-4.38;81.44
61898;BME280;47850;50.274;18.908;2022-12-18T09:32:28;100055.02;;;-4.26;81.78
61898;BME280;47850;50.274;18.908;2022-12-18T09:34:53;100063.47;;;-4.10;81.87
61898;BME280;47850;50.274;18.908;2022-12-18T09:37:18;100056.66;;;-3.92;81.07
61898;BME280;47850;50.274;18.908;2022-12-18T09:39:44;100056.95;;;-3.79;80.59
61898;BME280;47850;50.274;18.908;2022-12-18T09:42:29;100053.02;;;-3.67;80.50
61898;BME280;47850;50.274;18.908;2022-12-18T09:44:55;100060.05;;;-3.58;79.88
61898;BME280;47850;50.274;18.908;2022-12-18T09:47:45;100054.59;;;-3.54;79.82
61898;BME280;47850;50.274;18.908;2022-12-18T09:50:29;100059.73;;;-3.45;79.66
61898;BME280;47850;50.274;18.908;2022-12-18T09:53:00;100067.23;;;-3.38;79.37
61898;BME280;47850;50.274;18.908;2022-12-18T09:55:37;100062.23;;;-3.39;78.63
61898;BME280;47850;50.274;18.908;2022-12-18T09:58:36;100057.94;;;-3.49;78.21
61898;BME280;47850;50.274;18.908;2022-12-18T10:01:21;100062.41;;;-3.54;78.39
61898;BME280;47850;50.274;18.908;2022-12-18T10:03:48;100058.61;;;-3.66;78.15
61898;BME280;47850;50.274;18.908;2022-12-18T10:09:12;100058.77;;;-3.86;78.46
61898;BME280;47850;50.274;18.908;2022-12-18T10:11:52;100058.92;;;-3.89;78.76
61898;BME280;47850;50.274;18.908;2022-12-18T10:17:16;100053.80;;;-3.81;79.04
61898;BME280;47850;50.274;18.908;2022-12-18T10:20:07;100053.27;;;-3.76;78.83
61898;BME280;47850;50.274;18.908;2022-12-18T10:22:43;100051.66;;;-3.75;78.70
61898;BME280;47850;50.274;18.908;2022-12-18T10:25:18;100048.16;;;-3.71;78.81
61898;BME280;47850;50.274;18.908;2022-12-18T10:27:46;100039.30;;;-3.58;79.03
61898;BME280;47850;50.274;18.908;2022-12-18T10:30:15;100036.39;;;-3.42;78.83
61898;BME280;47850;50.274;18.908;2022-12-18T10:32:41;100032.63;;;-3.26;78.53
61898;BME280;47850;50.274;18.908;2022-12-18T10:35:19;100032.40;;;-3.11;78.31
61898;BME280;47850;50.274;18.908;2022-12-18T10:40:27;100032.93;;;-2.90;77.34
61898;BME280;47850;50.274;18.908;2022-12-18T10:43:11;100026.45;;;-2.76;77.48
61898;BME280;47850;50.274;18.908;2022-12-18T10:45:37;100025.92;;;-2.64;77.44
61898;BME280;47850;50.274;18.908;2022-12-18T10:48:03;100023.47;;;-2.64;76.36
61898;BME280;47850;50.274;18.908;2022-12-18T10:50:33;100019.21;;;-2.70;76.19
61898;BME280;47850;50.274;18.908;2022-12-18T10:53:01;100024.42;;;-2.61;76.06
61898;BME280;47850;50.274;18.908;2022-12-18T10:55:36;100029.00;;;-2.48;75.76
61898;BME280;47850;50.274;18.908;2022-12-18T10:58:55;100022.90;;;-2.39;75.59
61898;BME280;47850;50.274;18.908;2022-12-18T11:01:16;100016.77;;;-2.34;75.07
61898;BME280;47850;50.274;18.908;2022-12-18T11:03:43;100011.64;;;-2.19;75.15
61898;BME280;47850;50.274;18.908;2022-12-18T11:06:14;100007.94;;;-1.98;74.27
61898;BME280;47850;50.274;18.908;2022-12-18T11:08:41;100004.36;;;-1.83;74.30
61898;BME280;47850;50.274;18.908;2022-12-18T11:11:19;99998.84;;;-1.57;74.20
61898;BME280;47850;50.274;18.908;2022-12-18T11:16:21;99992.09;;;-0.93;72.25
61898;BME280;47850;50.274;18.908;2022-12-18T11:18:47;99991.04;;;-0.57;72.17
61898;BME280;47850;50.274;18.908;2022-12-18T11:21:13;99987.14;;;-0.51;70.95
61898;BME280;47850;50.274;18.908;2022-12-18T11:24:07;99985.81;;;-0.50;69.48
61898;BME280;47850;50.274;18.908;2022-12-18T11:26:44;99986.52;;;-0.27;70.18
61898;BME280;47850;50.274;18.908;2022-12-18T11:29:16;99996.94;;;0.08;69.72
61898;BME280;47850;50.274;18.908;2022-12-18T11:31:42;99995.21;;;0.29;68.57
61898;BME280;47850;50.274;18.908;2022-12-18T11:34:30;100002.27;;;0.34;67.28
61898;BME280;47850;50.274;18.908;2022-12-18T11:36:58;100001.15;;;0.05;67.29
61898;BME280;47850;50.274;18.908;2022-12-18T11:50:18;100016.55;;;1.00;67.58
61898;BME280;47850;50.274;18.908;2022-12-18T11:52:44;100012.89;;;1.67;66.30
61898;BME280;47850;50.274;18.908;2022-12-18T11:55:16;100012.79;;;2.03;64.39
61898;BME280;47850;50.274;18.908;2022-12-18T12:00:51;100015.25;;;2.12;61.05
61898;BME280;47850;50.274;18.908;2022-12-18T12:06:05;100019.91;;;0.95;63.05
61898;BME280;47850;50.274;18.908;2022-12-18T12:08:53;100025.30;;;0.32;63.51
61898;BME280;47850;50.274;18.908;2022-12-18T12:14:04;100023.98;;;0.08;65.96
61898;BME280;47850;50.274;18.908;2022-12-18T12:32:55;100036.04;;;0.92;64.76
61898;BME280;47850;50.274;18.908;2022-12-18T12:38:57;100042.34;;;1.69;63.62
61898;BME280;47850;50.274;18.908;2022-12-18T12:41:29;100038.67;;;2.22;62.53
61898;BME280;47850;50.274;18.908;2022-12-18T12:44:22;100036.52;;;2.76;61.17
61898;BME280;47850;50.274;18.908;2022-12-18T12:46:52;100035.51;;;3.00;59.37
61898;BME280;47850;50.274;18.908;2022-12-18T12:49:21;100035.23;;;3.09;59.43
61898;BME280;47850;50.274;18.908;2022-12-18T12:51:58;100037.18;;;3.22;59.45
61898;BME280;47850;50.274;18.908;2022-12-18T12:54:26;100042.81;;;3.57;58.90
61898;BME280;47850;50.274;18.908;2022-12-18T13:00:05;100037.95;;;4.10;57.52
61898;BME280;47850;50.274;18.908;2022-12-18T13:07:37;100034.00;;;4.76;53.61
61898;BME280;47850;50.274;18.908;2022-12-18T13:16:05;100041.80;;;4.68;53.10
61898;BME280;47850;50.274;18.908;2022-12-18T13:18:32;100041.63;;;4.90;52.47
61898;BME280;47850;50.274;18.908;2022-12-18T13:25:52;100052.81;;;5.46;49.61
61898;BME280;47850;50.274;18.908;2022-12-18T13:36:41;100056.96;;;5.02;49.45
61898;BME280;47850;50.274;18.908;2022-12-18T13:41:51;100061.41;;;4.76;50.12
61898;BME280;47850;50.274;18.908;2022-12-18T13:47:03;100063.17;;;4.73;50.29
61898;BME280;47850;50.274;18.908;2022-12-18T13:52:01;100062.70;;;4.88;50.07
61898;BME280;47850;50.274;18.908;2022-12-18T13:54:39;100063.25;;;4.88;49.92
61898;BME280;47850;50.274;18.908;2022-12-18T13:57:11;100058.50;;;4.91;49.81
61898;BME280;47850;50.274;18.908;2022-12-18T13:59:50;100055.30;;;4.81;49.68
61898;BME280;47850;50.274;18.908;2022-12-18T14:02:20;100050.46;;;4.39;50.03
61898;BME280;47850;50.274;18.908;2022-12-18T14:04:47;100054.71;;;3.57;50.74
61898;BME280;47850;50.274;18.908;2022-12-18T14:07:15;100057.17;;;2.74;51.60
61898;BME280;47850;50.274;18.908;2022-12-18T14:09:44;100061.52;;;1.95;52.60
61898;BME280;47850;50.274;18.908;2022-12-18T14:12:16;100057.27;;;1.27;54.04
61898;BME280;47850;50.274;18.908;2022-12-18T14:15:01;100058.30;;;0.53;55.42
61898;BME280;47850;50.274;18.908;2022-12-18T14:17:27;100063.28;;;0.00;56.70
61898;BME280;47850;50.274;18.908;2022-12-18T14:19:52;100064.98;;;-0.50;57.92
61898;BME280;47850;50.274;18.908;2022-12-18T14:22:24;100065.22;;;-1.02;58.68
61898;BME280;47850;50.274;18.908;2022-12-18T14:27:51;100070.75;;;-1.93;61.92
61898;BME280;47850;50.274;18.908;2022-12-18T14:30:28;100065.81;;;-2.32;62.54
61898;BME280;47850;50.274;18.908;2022-12-18T14:35:34;100071.20;;;-3.06;64.76
61898;BME280;47850;50.274;18.908;2022-12-18T14:38:10;100074.65;;;-3.36;66.20
61898;BME280;47850;50.274;18.908;2022-12-18T14:40:37;100070.89;;;-3.68;67.23
61898;BME280;47850;50.274;18.908;2022-12-18T14:43:02;100074.67;;;-3.91;68.01
61898;BME280;47850;50.274;18.908;2022-12-18T14:45:38;100071.19;;;-4.14;68.90
61898;BME280;47850;50.274;18.908;2022-12-18T14:48:07;100079.25;;;-4.36;69.43
61898;BME280;47850;50.274;18.908;2022-12-18T14:50:33;100083.64;;;-4.58;70.07